Time;durP1;ratioP1;P1;durP2;ratioP2;P2;SDS_P1;SDS_P2;PMS_P1;PMS_P2;Temp;Humidity;BMP_temperature;BMP_pressure;BME280_temperature;BME280_humidity;BME280_pressure;Samples;Min_cycle;Max_cycle;Signal;HPM_P1;HPM_P2
2022/07/04 00:02:51;;;;;;;9.23;3.00;;;;;;;24.31;44.53;99778.00;7684629;32;37982;-78
2022/07/04 00:07:07;;;;;;;5.53;3.00;;;;;;;24.10;44.92;99783.91;7684494;32;37809;-78
2022/07/04 00:11:23;;;;;;;5.60;2.97;;;;;;;24.27;44.32;99777.94;7684421;32;39127;-78
2022/07/04 00:15:40;;;;;;;4.82;2.97;;;;;;;24.04;44.61;99794.50;7684624;32;39274;-77
2022/07/04 00:19:56;;;;;;;5.12;2.70;;;;;;;23.94;44.59;99787.53;7663546;32;38056;-79
2022/07/04 00:24:12;;;;;;;5.45;3.35;;;;;;;23.81;44.64;99789.63;7657955;32;37080;-78
2022/07/04 00:28:28;;;;;;;4.50;2.50;;;;;;;23.77;44.09;99796.25;7657615;32;39311;-78
2022/07/04 00:32:44;;;;;;;4.90;2.80;;;;;;;23.83;43.85;99800.38;7657566;32;39914;-78
2022/07/04 00:37:00;;;;;;;4.10;2.78;;;;;;;23.76;44.29;99801.00;7657361;32;37928;-78
2022/07/04 00:41:17;;;;;;;4.43;3.00;;;;;;;23.77;44.32;99801.81;7657495;32;37237;-78
2022/07/04 00:45:33;;;;;;;5.37;2.92;;;;;;;23.90;44.00;99792.19;7657450;32;39051;-78
2022/07/04 00:49:49;;;;;;;5.35;3.42;;;;;;;23.83;44.20;99786.47;7657977;32;39747;-78
2022/07/04 00:54:06;;;;;;;7.20;2.85;;;;;;;24.02;43.74;99793.28;7658734;32;38489;-78
2022/07/04 00:58:23;;;;;;;4.47;3.05;;;;;;;24.03;43.45;99794.91;7660370;32;36998;-78
2022/07/04 01:02:39;;;;;;;6.65;3.35;;;;;;;23.77;43.75;99794.28;7660833;32;39912;-78
2022/07/04 01:06:55;;;;;;;6.12;3.40;;;;;;;23.40;44.96;99799.31;7660365;32;40847;-78
2022/07/04 01:11:12;;;;;;;4.25;2.87;;;;;;;23.35;46.37;99799.56;7646681;32;38638;-77
2022/07/04 01:15:28;;;;;;;4.53;3.08;;;;;;;23.27;47.56;99800.53;7660176;32;37832;-78
2022/07/04 01:19:45;;;;;;;5.15;3.40;;;;;;;23.13;48.29;99809.31;7662231;32;39884;-78
2022/07/04 01:24:01;;;;;;;5.22;3.17;;;;;;;23.03;48.53;99805.88;7659974;32;39719;-78
2022/07/04 01:28:20;;;;;;;5.07;2.90;;;;;;;22.86;49.54;99801.44;7659779;32;38630;-78
2022/07/04 01:32:36;;;;;;;5.70;3.47;;;;;;;23.06;47.79;99793.28;7660069;32;37092;-78
2022/07/04 01:36:52;;;;;;;6.12;3.15;;;;;;;22.85;47.36;99791.50;7659980;32;39390;-78
2022/07/04 01:41:09;;;;;;;5.22;3.40;;;;;;;22.74;46.98;99797.91;7659994;32;41254;-78
2022/07/04 01:45:25;;;;;;;9.10;3.12;;;;;;;22.76;46.87;99795.56;7659733;32;38899;-78
2022/07/04 01:49:41;;;;;;;5.50;3.25;;;;;;;22.61;47.89;99797.13;7660553;32;36836;-78
2022/07/04 01:53:57;;;;;;;5.70;2.83;;;;;;;22.62;48.12;99804.31;7659742;32;39282;-78
2022/07/04 01:58:13;;;;;;;5.30;3.62;;;;;;;22.76;47.81;99801.13;7659598;32;40670;-78
2022/07/04 02:02:29;;;;;;;6.60;3.40;;;;;;;22.67;48.07;99809.63;7659484;32;38707;-78
2022/07/04 02:06:45;;;;;;;6.15;3.50;;;;;;;22.57;48.39;99821.22;7659395;32;38134;-78
2022/07/04 02:11:01;;;;;;;4.82;3.33;;;;;;;22.59;48.11;99819.69;7659562;32;40122;-78
2022/07/04 02:15:18;;;;;;;6.78;3.42;;;;;;;22.61;47.82;99813.78;7659379;32;40730;-78
2022/07/04 02:19:34;;;;;;;7.95;3.47;;;;;;;22.55;47.64;99815.22;7680239;32;37915;-78
2022/07/04 02:23:50;;;;;;;5.00;3.20;;;;;;;22.47;47.50;99803.91;7685767;32;37819;-78
2022/07/04 02:28:06;;;;;;;6.75;3.20;;;;;;;22.60;46.96;99803.87;7685271;32;40152;-78
2022/07/04 02:32:22;;;;;;;5.97;3.62;;;;;;;22.48;47.02;99808.28;7685534;32;40952;-78
2022/07/04 02:36:38;;;;;;;6.07;3.58;;;;;;;22.41;47.29;99812.84;7685472;32;38641;-78
2022/07/04 02:40:54;;;;;;;7.55;3.53;;;;;;;22.45;47.14;99820.09;7685461;32;36981;-78
2022/07/04 02:45:10;;;;;;;6.05;3.78;;;;;;;22.53;47.00;99812.78;7685424;32;40140;-78
2022/07/04 02:49:26;;;;;;;7.85;3.87;;;;;;;22.48;47.22;99819.41;7674812;32;39875;-78
2022/07/04 02:53:43;;;;;;;6.72;3.33;;;;;;;22.32;47.79;99815.75;7685351;32;37914;-77
2022/07/04 02:57:59;;;;;;;8.10;3.28;;;;;;;22.52;47.18;99822.28;7685391;32;36803;-78
2022/07/04 03:02:15;;;;;;;5.60;3.40;;;;;;;22.58;46.71;99825.63;7685397;32;39051;-78
2022/07/04 03:06:31;;;;;;;5.32;3.12;;;;;;;22.48;46.78;99822.16;7685270;32;40617;-78
2022/07/04 03:10:49;;;;;;;5.20;3.70;;;;;;;22.61;46.30;99828.50;7685203;32;37677;-77
2022/07/04 03:15:05;;;;;;;9.23;3.40;;;;;;;22.54;46.40;99833.03;7671272;32;37672;-77
2022/07/04 03:19:21;;;;;;;8.10;3.85;;;;;;;22.50;46.74;99827.38;7660096;32;40033;-78
2022/07/04 03:23:37;;;;;;;5.87;3.35;;;;;;;22.43;47.18;99825.19;7658666;32;39882;-79
2022/07/04 03:27:54;;;;;;;6.87;3.58;;;;;;;22.42;47.52;99833.87;7658286;32;38736;-78
2022/07/04 03:32:10;;;;;;;10.63;3.72;;;;;;;22.56;47.34;99836.25;7658475;32;37319;-78
2022/07/04 03:36:26;;;;;;;6.90;3.30;;;;;;;22.59;47.57;99830.81;7658467;32;39401;-78
2022/07/04 03:40:42;;;;;;;6.75;3.67;;;;;;;22.55;47.93;99821.56;7658323;32;40873;-78
2022/07/04 03:44:58;;;;;;;6.20;3.20;;;;;;;22.50;48.57;99819.84;7658324;32;37976;-78
2022/07/04 03:49:14;;;;;;;7.80;3.47;;;;;;;22.56;48.56;99809.31;7681840;32;37123;-78
2022/07/04 03:53:30;;;;;;;6.05;3.30;;;;;;;22.55;48.71;99809.66;7684778;32;40221;-78
2022/07/04 03:57:46;;;;;;;5.62;3.42;;;;;;;22.56;48.76;99822.38;7684666;32;40029;-78
2022/07/04 04:02:02;;;;;;;6.10;3.60;;;;;;;22.52;48.88;99821.47;7684405;32;37925;-77
2022/07/04 04:06:19;;;;;;;6.47;3.72;;;;;;;22.44;49.17;99823.25;7684587;32;37167;-77
2022/07/04 04:10:35;;;;;;;15.93;4.35;;;;;;;22.38;49.58;99822.66;7684386;32;39136;-77
2022/07/04 04:14:51;;;;;;;11.95;4.15;;;;;;;22.58;49.01;99828.41;7684301;32;40613;-78
2022/07/04 04:19:07;;;;;;;7.87;4.30;;;;;;;22.59;49.17;99835.56;7680389;32;37688;-77
2022/07/04 04:23:23;;;;;;;7.85;3.85;;;;;;;22.58;49.40;99834.78;7674278;32;36899;-77
2022/07/04 04:27:39;;;;;;;5.68;3.55;;;;;;;22.55;49.58;99835.47;7683877;32;39925;-78
2022/07/04 04:31:55;;;;;;;8.10;3.60;;;;;;;22.46;49.75;99832.84;7684111;32;40679;-77
2022/07/04 04:36:11;;;;;;;20.05;5.35;;;;;;;22.52;49.84;99829.81;7683904;32;37957;-78
2022/07/04 04:40:27;;;;;;;60.85;8.30;;;;;;;22.73;49.43;99824.06;7683786;32;37955;-77
2022/07/04 04:44:43;;;;;;;17.20;4.47;;;;;;;22.79;49.26;99820.69;7683762;32;40036;-78
2022/07/04 04:49:00;;;;;;;8.13;4.40;;;;;;;22.82;49.41;99822.75;7661672;32;40205;-77
2022/07/04 04:53:16;;;;;;;10.93;4.57;;;;;;;22.91;48.62;99821.81;7656976;32;37880;-77
2022/07/04 04:57:32;;;;;;;6.72;3.62;;;;;;;23.03;48.24;99821.75;7657016;32;38249;-77
2022/07/04 05:01:48;;;;;;;6.32;3.95;;;;;;;23.13;47.58;99817.66;7656894;32;39281;-78
2022/07/04 05:06:05;;;;;;;11.23;3.92;;;;;;;23.37;46.21;99817.53;7656900;32;40611;-78
2022/07/04 05:10:21;;;;;;;10.63;4.32;;;;;;;23.54;45.62;99824.72;7656724;32;37789;-78
2022/07/04 05:14:37;;;;;;;6.75;3.85;;;;;;;23.75;45.56;99830.00;7656711;32;36989;-78
2022/07/04 05:18:53;;;;;;;9.38;3.80;;;;;;;23.81;45.13;99839.72;7677242;32;39105;-77
2022/07/04 05:23:09;;;;;;;6.65;3.75;;;;;;;24.09;44.36;99854.69;7682812;32;40791;-77
2022/07/04 05:27:26;;;;;;;7.15;3.62;;;;;;;24.29;44.17;99847.22;7681331;32;38617;-77
2022/07/04 05:31:42;;;;;;;7.75;3.90;;;;;;;24.35;44.41;99851.31;7682625;32;38024;-77
2022/07/04 05:35:58;;;;;;;7.78;3.97;;;;;;;24.52;43.48;99850.09;7682470;32;40225;-78
2022/07/04 05:40:15;;;;;;;8.98;3.45;;;;;;;24.76;43.08;99848.25;7684433;32;39774;-75
2022/07/04 05:44:31;;;;;;;7.70;3.60;;;;;;;24.65;43.39;99851.59;7684359;32;37770;-78
2022/07/04 05:48:47;;;;;;;7.97;3.70;;;;;;;25.21;42.53;99855.09;7665715;32;36814;-78
2022/07/04 05:53:03;;;;;;;6.37;3.97;;;;;;;25.47;42.26;99860.81;7659695;32;39152;-79
2022/07/04 05:57:19;;;;;;;10.43;4.15;;;;;;;25.59;41.80;99853.44;7659625;32;40528;-78
2022/07/04 06:01:36;;;;;;;10.20;3.95;;;;;;;25.86;41.13;99837.53;7668729;32;38373;-77
2022/07/04 06:05:53;;;;;;;5.40;3.67;;;;;;;26.10;41.07;99836.34;7670263;32;37125;-81
2022/07/04 06:10:09;;;;;;;6.05;3.70;;;;;;;26.25;40.87;99840.16;7684657;32;39459;-68
2022/07/04 06:14:25;;;;;;;11.30;4.12;;;;;;;26.48;41.00;99845.66;7684124;32;40808;-69
2022/07/04 06:18:41;;;;;;;7.10;4.10;;;;;;;26.51;41.75;99850.50;7684667;32;37799;-74
2022/07/04 06:22:57;;;;;;;7.65;4.30;;;;;;;26.44;41.97;99839.25;7684425;32;37954;-77
2022/07/04 06:27:13;;;;;;;8.07;4.00;;;;;;;26.34;42.76;99839.91;7685135;32;39346;-77
2022/07/04 06:31:30;;;;;;;9.48;4.87;;;;;;;26.34;42.03;99834.31;7666868;32;39868;-76
2022/07/04 06:35:47;;;;;;;9.77;4.37;;;;;;;26.77;41.15;99834.91;7653236;32;38704;-77
2022/07/04 06:40:04;;;;;;;9.68;4.53;;;;;;;26.69;40.65;99839.56;7658608;32;37807;-76
2022/07/04 06:44:20;;;;;;;8.13;4.10;;;;;;;26.72;39.85;99838.03;7678553;32;39299;-76
2022/07/04 06:48:36;;;;;;;8.45;4.30;;;;;;;26.68;40.47;99840.78;7666337;32;39947;-75
2022/07/04 06:52:52;;;;;;;7.18;4.28;;;;;;;26.74;39.92;99835.66;7656768;32;38635;-77
2022/07/04 06:57:08;;;;;;;11.68;4.40;;;;;;;26.78;38.07;99842.09;7677869;32;37781;-75
2022/07/04 07:01:45;;;;;;;7.25;4.37;;;;;;;27.07;37.43;99837.62;7683920;32;39640;-76
2022/07/04 07:06:02;;;;;;;8.35;4.20;;;;;;;27.54;37.37;99829.72;7676274;32;169930;-75
2022/07/04 07:10:18;;;;;;;6.45;3.90;;;;;;;27.50;36.68;99832.50;7685047;32;38087;-75
2022/07/04 07:14:35;;;;;;;9.27;4.47;;;;;;;27.94;35.81;99841.28;7684972;32;37024;-79
2022/07/04 07:18:51;;;;;;;6.93;4.05;;;;;;;27.49;35.89;99842.09;7674060;32;39938;-74
2022/07/04 07:23:07;;;;;;;7.47;3.92;;;;;;;27.89;35.19;99842.44;7684446;32;40584;-74
2022/07/04 07:27:23;;;;;;;8.60;3.87;;;;;;;28.39;35.00;99830.75;7684708;32;37715;-74
2022/07/04 07:31:39;;;;;;;7.28;3.92;;;;;;;28.38;34.12;99832.78;7685403;32;37022;-74
2022/07/04 07:35:55;;;;;;;6.47;3.35;;;;;;;28.39;34.63;99837.19;7684983;32;40092;-74
2022/07/04 07:40:12;;;;;;;8.25;3.25;;;;;;;28.70;32.80;99836.97;7670896;32;40756;-74
2022/07/04 07:44:28;;;;;;;5.75;2.97;;;;;;;28.63;33.85;99832.13;7684632;32;38710;-72
2022/07/04 07:48:44;;;;;;;4.60;3.00;;;;;;;28.80;34.57;99827.78;7675242;32;36233;-73
2022/07/04 07:53:00;;;;;;;5.60;3.30;;;;;;;28.40;34.90;99805.13;7658169;32;39379;-74
2022/07/04 07:57:16;;;;;;;4.20;2.20;;;;;;;29.02;34.68;99811.81;7658171;32;40388;-73
2022/07/04 08:01:32;;;;;;;4.22;2.17;;;;;;;29.66;31.90;99807.50;7657616;32;38631;-74
2022/07/04 08:05:48;;;;;;;4.05;2.53;;;;;;;30.04;28.87;99807.91;7658202;32;37083;-73
2022/07/04 08:10:05;;;;;;;7.90;2.33;;;;;;;30.39;29.37;99795.00;7658063;32;40031;-73
2022/07/04 08:14:21;;;;;;;6.95;2.10;;;;;;;30.64;27.75;99797.72;7658081;32;39602;-74
2022/07/04 08:18:38;;;;;;;3.55;2.35;;;;;;;31.28;27.80;99793.75;7683979;32;37986;-74
2022/07/04 08:22:54;;;;;;;3.25;2.50;;;;;;;31.74;26.10;99791.81;7684142;32;37058;-74
2022/07/04 08:27:11;;;;;;;5.50;2.20;;;;;;;31.81;26.11;99789.72;7683887;32;39302;-72
2022/07/04 08:31:28;;;;;;;3.62;2.50;;;;;;;32.30;25.66;99780.37;7683980;32;39712;-72
2022/07/04 08:36:04;;;;;;;1.87;1.67;;;;;;;32.54;24.81;99775.66;7683578;32;38269;-72
2022/07/04 08:40:23;;;;;;;3.33;1.77;;;;;;;32.84;23.67;99777.72;7674493;32;37035;-71
2022/07/04 08:44:41;;;;;;;2.12;1.70;;;;;;;33.33;23.61;99780.22;7680894;32;38389;-72
2022/07/04 08:49:01;;;;;;;2.72;1.45;;;;;;;33.46;23.11;99784.06;7683718;32;40830;-74
2022/07/04 08:53:19;;;;;;;5.95;1.75;;;;;;;33.68;21.17;99773.22;7682946;32;38497;-72
2022/07/04 09:02:13;;;;;;;2.12;1.62;;;;;;;33.81;20.00;99772.59;7666601;32;39393;-71
2022/07/04 09:06:31;;;;;;;7.47;1.95;;;;;;;34.02;20.24;99760.88;7654536;32;40888;-72
2022/07/04 09:10:50;;;;;;;7.65;1.90;;;;;;;33.82;22.29;99760.03;7655373;32;38403;-73
2022/07/04 09:30:07;;;;;;;8.85;1.85;;;;;;;35.12;18.22;99753.31;7808190;32;155705;-71
2022/07/04 09:34:23;;;;;;;2.45;1.70;;;;;;;34.82;18.33;99745.91;7785378;32;40700;-72
2022/07/04 09:38:39;;;;;;;3.10;1.30;;;;;;;34.90;18.19;99753.03;7785267;32;37893;-72
2022/07/04 09:42:58;;;;;;;3.03;1.15;;;;;;;35.26;19.32;99740.88;7785331;32;38445;-72
2022/07/04 09:47:27;;;;;;;3.42;1.10;;;;;;;35.17;17.64;99738.62;7785375;32;38075;-72
2022/07/04 09:51:45;;;;;;;2.10;1.30;;;;;;;35.77;16.95;99740.38;7785190;32;40068;-73
2022/07/04 09:56:01;;;;;;;1.30;1.20;;;;;;;36.09;17.30;99745.19;7785024;32;37689;-72
2022/07/04 10:00:26;;;;;;;4.25;1.33;;;;;;;36.10;16.97;99740.31;7785531;32;37609;-72
2022/07/04 10:04:55;;;;;;;4.05;1.20;;;;;;;36.02;17.46;99739.72;7785149;32;39146;-72
2022/07/04 10:09:16;;;;;;;1.95;1.30;;;;;;;36.10;18.02;99743.94;7785140;32;40519;-72
2022/07/04 10:13:33;;;;;;;4.07;1.30;;;;;;;35.92;17.62;99735.91;7784873;32;37925;-73
2022/07/04 10:17:49;;;;;;;2.37;1.00;;;;;;;35.57;18.19;99725.53;7784773;32;36571;-73
2022/07/04 10:22:07;;;;;;;3.15;1.50;;;;;;;35.43;16.48;99699.16;7784858;32;39143;-72
2022/07/04 10:26:24;;;;;;;2.45;1.12;;;;;;;36.14;17.50;99711.84;7783252;32;38840;-73
2022/07/04 10:30:41;;;;;;;3.45;1.60;;;;;;;36.47;17.32;99701.94;7768516;32;38592;-71
2022/07/04 10:34:57;;;;;;;1.17;1.02;;;;;;;36.68;15.91;99710.25;7766562;32;36655;-72
2022/07/04 10:39:21;;;;;;;1.75;1.30;;;;;;;36.80;16.76;99701.75;7765374;32;39099;-72
2022/07/04 10:43:51;;;;;;;4.57;1.17;;;;;;;37.01;15.79;99697.44;7765359;32;39685;-71
2022/07/04 10:48:09;;;;;;;1.33;1.00;;;;;;;36.84;14.58;99698.78;7766368;32;37885;-71
2022/07/04 10:52:25;;;;;;;1.70;1.00;;;;;;;37.14;14.00;99703.09;7765577;32;36866;-77
2022/07/04 10:56:44;;;;;;;2.10;1.10;;;;;;;36.76;13.63;99689.72;7766224;32;39127;-76
2022/07/04 11:01:16;;;;;;;2.15;1.20;;;;;;;36.94;13.95;99691.97;7766203;32;40003;-68
2022/07/04 11:05:32;;;;;;;3.40;1.20;;;;;;;37.12;14.41;99696.25;7766067;32;38642;-71
2022/07/04 11:14:43;;;;;;;1.85;1.20;;;;;;;37.36;14.32;99663.41;7766170;32;39300;-71
2022/07/04 11:18:59;;;;;;;;;;;;;;;37.89;14.13;99664.78;7766255;32;40568;-71
2022/07/04 11:23:19;;;;;;;2.08;1.30;;;;;;;38.23;14.47;99654.62;7766126;32;38087;-72
2022/07/04 11:27:35;;;;;;;1.50;1.10;;;;;;;38.30;14.41;99648.63;7765817;32;36690;-74
2022/07/04 11:31:52;;;;;;;5.43;1.50;;;;;;;37.65;13.92;99639.66;7766091;32;38953;-76
2022/07/04 11:36:10;;;;;;;3.55;1.20;;;;;;;38.61;14.47;99645.00;7765700;32;40022;-76
2022/07/04 11:45:22;;;;;;;1.62;1.10;;;;;;;37.74;12.72;99624.72;7765775;32;36804;-76
2022/07/04 11:49:43;;;;;;;2.65;1.35;;;;;;;38.12;15.12;99620.87;7765756;32;38142;-75
2022/07/04 11:54:05;;;;;;;1.15;1.05;;;;;;;38.26;13.17;99611.78;7765670;32;41328;-76
2022/07/04 11:58:42;;;;;;;3.30;1.12;;;;;;;37.99;12.88;99617.28;7765122;32;39061;-75
2022/07/04 12:03:00;;;;;;;2.35;1.12;;;;;;;38.75;12.83;99615.94;7765458;32;36849;-76
2022/07/04 12:07:20;;;;;;;4.95;1.45;;;;;;;39.19;13.28;99617.78;7765490;32;38169;-76
2022/07/04 12:11:59;;;;;;;5.03;1.33;;;;;;;39.00;12.27;99617.72;7765335;32;39966;-76
2022/07/04 12:16:16;;;;;;;2.10;1.02;;;;;;;39.50;13.73;99611.97;7759445;32;37591;-76
2022/07/04 12:20:32;;;;;;;4.95;1.08;;;;;;;40.30;11.16;99609.88;7765307;32;37058;-76
2022/07/04 12:24:48;;;;;;;3.50;1.50;;;;;;;40.37;11.32;99603.06;7765203;32;39870;-76
2022/07/04 12:29:09;;;;;;;1.23;1.10;;;;;;;40.72;12.14;99617.66;7763758;32;39688;-76
2022/07/04 12:33:27;;;;;;;2.62;1.20;;;;;;;40.43;11.09;99606.06;7765150;32;37659;-76
2022/07/04 12:37:43;;;;;;;1.17;1.15;;;;;;;40.60;11.22;99615.03;7764949;32;36629;-77
2022/07/04 12:42:17;;;;;;;4.12;1.33;;;;;;;40.43;11.36;99606.06;7764225;32;39786;-76
2022/07/04 12:46:36;;;;;;;1.33;1.23;;;;;;;39.90;12.13;99602.38;7764979;32;39984;-77
2022/07/04 12:51:19;;;;;;;3.47;1.20;;;;;;;40.07;12.11;99602.84;7764098;32;38229;-76
2022/07/04 12:55:40;;;;;;;4.10;1.60;;;;;;;40.28;11.99;99601.03;7764731;32;36943;-77
2022/07/04 12:59:56;;;;;;;6.07;1.25;;;;;;;40.97;12.60;99598.47;7764620;32;39904;-76
2022/07/04 13:04:32;;;;;;;3.67;1.40;;;;;;;41.41;10.65;99608.50;7764142;32;40238;-75
2022/07/04 13:08:48;;;;;;;3.50;1.58;;;;;;;40.81;10.84;99591.13;7764418;32;38064;-76
2022/07/04 13:13:05;;;;;;;1.73;1.00;;;;;;;41.07;11.36;99596.34;7764349;32;37027;-76
2022/07/04 13:17:21;;;;;;;1.95;1.27;;;;;;;41.01;11.96;99598.28;7764252;32;39180;-76
2022/07/04 13:21:38;;;;;;;1.40;1.30;;;;;;;40.56;11.14;99609.50;7764000;32;39955;-77
2022/07/04 13:25:54;;;;;;;1.55;1.25;;;;;;;39.93;12.31;99610.03;7750092;32;37952;-77
2022/07/04 13:30:10;;;;;;;1.77;1.50;;;;;;;39.81;12.40;99596.72;7763783;32;37695;-76
2022/07/04 13:34:27;;;;;;;3.53;1.20;;;;;;;39.69;12.99;99600.50;7763917;32;39652;-75
2022/07/04 13:38:43;;;;;;;2.05;1.27;;;;;;;40.53;12.29;99601.88;7763694;32;40455;-75
2022/07/04 13:43:19;;;;;;;2.87;1.55;;;;;;;41.06;11.78;99604.13;7758491;32;38601;-74
2022/07/04 13:47:35;;;;;;;2.67;1.15;;;;;;;40.70;11.59;99608.78;7763046;32;36893;-78
2022/07/04 13:51:52;;;;;;;1.15;1.00;;;;;;;41.24;10.88;99593.84;7761609;32;39133;-78
2022/07/04 13:56:08;;;;;;;1.40;1.30;;;;;;;41.05;11.42;99588.28;7761946;32;40858;-78
2022/07/04 14:00:24;;;;;;;4.15;1.20;;;;;;;41.40;10.82;99586.91;7762964;32;38050;-79
2022/07/04 14:04:40;;;;;;;4.53;1.08;;;;;;;41.58;10.71;99583.06;7764255;32;37717;-78
2022/07/04 14:08:56;;;;;;;3.37;1.30;;;;;;;41.94;11.27;99581.13;7766804;32;40096;-78
2022/07/04 14:13:12;;;;;;;2.60;1.27;;;;;;;41.74;10.96;99579.75;7765743;32;40015;-78
2022/07/04 14:17:28;;;;;;;1.62;1.23;;;;;;;41.79;11.19;99587.66;7766560;32;37903;-77
2022/07/04 14:21:52;;;;;;;1.90;1.10;;;;;;;41.32;11.26;99589.34;7766193;32;36860;-78
2022/07/04 14:26:16;;;;;;;2.17;1.10;;;;;;;41.81;11.57;99570.78;7765866;32;40099;-78
2022/07/04 14:30:32;;;;;;;5.60;1.40;;;;;;;41.36;10.79;99560.53;7766281;32;40795;-79
2022/07/04 14:34:48;;;;;;;1.90;1.23;;;;;;;41.36;11.38;99572.81;7765498;32;38066;-78
2022/07/04 14:39:06;;;;;;;2.15;1.45;;;;;;;41.44;10.96;99559.66;7766369;32;36544;-78
2022/07/04 14:43:22;;;;;;;4.53;1.40;;;;;;;41.18;11.09;99555.75;7763267;32;39899;-78
2022/07/04 14:47:41;;;;;;;2.45;1.20;;;;;;;41.54;10.95;99562.47;7760612;32;39838;-77
2022/07/04 14:52:00;;;;;;;5.80;1.67;;;;;;;41.16;10.91;99559.13;7749720;32;38489;-78
2022/07/04 14:56:16;;;;;;;4.40;1.42;;;;;;;41.38;11.29;99555.12;7753952;32;36890;-78
2022/07/04 15:00:32;;;;;;;1.20;0.95;;;;;;;40.91;11.01;99554.69;7766193;32;39020;-78
2022/07/04 15:04:48;;;;;;;1.08;0.93;;;;;;;40.81;10.77;99556.84;7754698;32;40759;-79
2022/07/04 15:09:08;;;;;;;1.77;1.00;;;;;;;39.88;11.37;99555.62;7743316;32;36562;-79
2022/07/04 15:13:24;;;;;;;2.10;0.93;;;;;;;40.07;12.53;99550.66;7738323;32;36909;-79
2022/07/04 15:17:41;;;;;;;2.12;1.10;;;;;;;40.02;11.75;99554.97;7745723;32;39135;-77
2022/07/04 15:26:32;;;;;;;1.98;1.10;;;;;;;39.71;12.43;99558.06;7753015;32;37883;-80
2022/07/04 15:30:48;;;;;;;4.62;1.30;;;;;;;39.85;12.21;99563.09;7745667;32;37599;-81
2022/07/04 15:35:05;;;;;;;6.20;1.90;;;;;;;39.67;13.43;99568.81;7760683;32;39199;-80
2022/07/04 15:39:30;;;;;;;4.78;2.00;;;;;;;39.07;16.24;99571.06;7740105;32;40794;-82
2022/07/04 15:43:46;;;;;;;4.40;2.30;;;;;;;38.76;16.79;99574.81;7739086;32;37815;-81
2022/07/04 15:48:02;;;;;;;9.80;2.80;;;;;;;37.63;19.20;99579.59;7737977;32;36839;-81
2022/07/04 15:52:18;;;;;;;5.80;2.00;;;;;;;37.45;19.90;99596.53;7737373;32;39027;-79
2022/07/04 15:56:34;;;;;;;5.93;1.80;;;;;;;37.55;20.26;99589.63;7737460;32;40446;-80
2022/07/04 16:00:50;;;;;;;6.87;2.33;;;;;;;36.84;21.19;99594.53;7738338;32;38667;-81
2022/07/04 16:05:07;;;;;;;5.37;2.17;;;;;;;35.89;22.27;99612.06;7736359;32;37883;-80
2022/07/04 16:09:23;;;;;;;5.78;2.20;;;;;;;34.76;23.93;99612.59;7747725;32;39187;-83
2022/07/04 16:13:39;;;;;;;6.25;2.00;;;;;;;35.12;23.70;99603.19;7750439;32;39848;-83
2022/07/04 16:17:56;;;;;;;6.87;2.17;;;;;;;34.51;25.22;99596.19;7744817;32;37907;-79
2022/07/04 16:22:12;;;;;;;6.97;2.30;;;;;;;34.21;26.15;99609.41;7763448;32;37624;-79
2022/07/04 16:26:28;;;;;;;6.30;2.37;;;;;;;33.82;25.60;99613.03;7756978;32;39327;-79
2022/07/04 16:30:44;;;;;;;6.18;2.10;;;;;;;33.64;25.82;99614.19;7747580;32;40034;-81
2022/07/04 16:35:04;;;;;;;8.80;2.20;;;;;;;33.37;25.78;99616.31;7751600;32;38762;-80
2022/07/04 16:39:22;;;;;;;4.50;2.00;;;;;;;33.41;26.05;99608.56;7747369;32;37799;-79
2022/07/04 16:43:38;;;;;;;5.70;2.30;;;;;;;33.03;26.70;99604.00;7749395;32;38510;-80
2022/07/04 16:47:54;;;;;;;10.45;2.33;;;;;;;33.21;28.23;99603.69;7755613;32;40757;-79
2022/07/04 16:52:11;;;;;;;8.73;2.03;;;;;;;33.12;28.22;99604.22;7761498;32;37898;-80
2022/07/04 16:56:27;;;;;;;3.85;2.22;;;;;;;32.91;28.53;99596.94;7764317;32;37831;-79
2022/07/04 17:00:43;;;;;;;9.52;2.40;;;;;;;32.94;29.01;99601.72;7744857;32;39425;-78
2022/07/04 17:05:00;;;;;;;7.53;2.92;;;;;;;32.49;27.71;99604.03;7755604;32;40754;-78
2022/07/04 17:09:16;;;;;;;7.55;2.80;;;;;;;32.45;27.30;99604.09;7741374;32;38642;-78
2022/07/04 17:13:33;;;;;;;5.87;2.20;;;;;;;32.36;27.52;99601.00;7750020;32;36912;-79
2022/07/04 17:17:49;;;;;;;19.90;3.97;;;;;;;32.70;27.37;99594.47;7763704;32;39056;-80
2022/07/04 17:22:05;;;;;;;13.13;3.00;;;;;;;32.58;28.18;99604.28;7744637;32;40895;-79
2022/07/04 17:26:22;;;;;;;5.32;2.50;;;;;;;32.77;28.22;99585.09;7749599;32;37745;-80
2022/07/04 17:30:39;;;;;;;7.80;2.50;;;;;;;32.90;27.55;99577.59;7763166;32;37621;-78
2022/07/04 17:34:55;;;;;;;6.40;2.55;;;;;;;32.81;28.12;99578.16;7763683;32;38853;-79
2022/07/04 17:39:11;;;;;;;8.75;2.22;;;;;;;32.84;28.77;99577.31;7747527;32;40700;-73
2022/07/04 17:43:27;;;;;;;10.15;2.55;;;;;;;32.71;29.05;99568.63;7740141;32;37680;-77
2022/07/04 17:47:43;;;;;;;6.72;2.00;;;;;;;32.84;27.78;99566.03;7740112;32;36773;-76
2022/07/04 17:51:59;;;;;;;2.90;2.00;;;;;;;32.83;27.91;99549.50;7740158;32;38964;-77
2022/07/04 17:56:16;;;;;;;5.20;2.08;;;;;;;32.81;27.99;99557.63;7739894;32;39929;-77
2022/07/04 18:00:32;;;;;;;5.35;2.00;;;;;;;32.69;27.89;99553.38;7739703;32;37947;-76
2022/07/04 18:04:48;;;;;;;6.95;2.40;;;;;;;32.59;28.38;99560.75;7739863;32;37702;-76
2022/07/04 18:09:05;;;;;;;7.05;2.47;;;;;;;32.65;28.21;99561.09;7740629;32;39322;-77
2022/07/04 18:13:22;;;;;;;8.20;2.90;;;;;;;32.72;28.54;99561.00;7739712;32;40288;-77
2022/07/04 18:17:38;;;;;;;10.23;2.22;;;;;;;32.64;28.49;99568.75;7739638;32;37864;-76
2022/07/04 18:21:54;;;;;;;3.70;2.35;;;;;;;32.51;28.93;99565.72;7739529;32;37813;-76
2022/07/04 18:26:11;;;;;;;6.32;2.62;;;;;;;32.45;28.98;99575.88;7739615;32;39438;-76
2022/07/04 18:30:28;;;;;;;9.55;2.60;;;;;;;32.31;28.84;99570.47;7739277;32;40716;-77
2022/07/04 18:34:48;;;;;;;3.65;2.15;;;;;;;32.14;29.69;99584.38;7739660;32;37968;-77
2022/07/04 18:39:04;;;;;;;5.40;2.42;;;;;;;31.99;29.53;99594.22;7739563;32;37782;-76
2022/07/04 18:43:23;;;;;;;7.93;2.72;;;;;;;31.71;30.51;99601.03;7739444;32;38777;-77
2022/07/04 18:47:39;;;;;;;4.78;2.65;;;;;;;31.44;31.27;99608.16;7739602;32;40827;-77
2022/07/04 18:51:56;;;;;;;7.37;2.60;;;;;;;31.57;31.19;99613.28;7739014;32;37954;-76
2022/07/04 18:56:12;;;;;;;10.77;2.78;;;;;;;31.61;31.18;99619.66;7762503;32;37046;-76
2022/07/04 19:00:28;;;;;;;6.45;2.62;;;;;;;31.56;31.33;99617.31;7742570;32;40011;-76
2022/07/04 19:04:44;;;;;;;6.75;2.67;;;;;;;31.62;31.03;99607.19;7764064;32;40042;-76
2022/07/04 19:09:00;;;;;;;6.18;2.53;;;;;;;31.39;31.51;99617.06;7756127;32;38802;-76
2022/07/04 19:13:19;;;;;;;9.80;2.28;;;;;;;31.26;31.92;99621.59;7742383;32;36955;-76
2022/07/04 19:17:39;;;;;;;4.97;2.50;;;;;;;31.14;31.19;99622.13;7743598;32;40085;-75
2022/07/04 19:21:55;;;;;;;8.55;2.80;;;;;;;30.76;32.70;99639.69;7763008;32;40003;-75
2022/07/04 19:26:11;;;;;;;8.45;2.90;;;;;;;30.94;32.20;99635.97;7777899;32;38076;-76
2022/07/04 19:30:27;;;;;;;5.32;2.37;;;;;;;31.03;31.47;99647.56;7791843;32;36739;-76
2022/07/04 19:34:43;;;;;;;6.75;2.10;;;;;;;30.86;31.35;99649.28;7775187;32;39804;-76
2022/07/04 19:38:59;;;;;;;11.98;2.60;;;;;;;30.91;30.85;99651.66;7775511;32;40941;-76
2022/07/04 19:43:16;;;;;;;6.45;2.50;;;;;;;30.74;31.05;99652.59;7792747;32;37999;-76
2022/07/04 19:47:33;;;;;;;9.95;2.37;;;;;;;30.66;31.03;99652.63;7793210;32;35237;-75
2022/07/04 19:56:25;;;;;;;11.32;2.12;;;;;;;30.80;31.28;99645.28;7765558;32;39828;-75
2022/07/04 20:00:41;;;;;;;5.45;2.58;;;;;;;30.75;31.56;99640.09;7764408;32;38692;-76
2022/07/04 20:04:58;;;;;;;11.40;2.60;;;;;;;30.43;32.37;99661.59;7765509;32;37638;-75
2022/07/04 20:09:14;;;;;;;3.90;2.20;;;;;;;29.93;33.48;99661.81;7749921;32;39288;-75
2022/07/04 20:13:31;;;;;;;4.40;2.30;;;;;;;29.57;34.51;99673.91;7738334;32;40796;-76
2022/07/04 20:17:49;;;;;;;9.32;2.40;;;;;;;29.99;33.75;99662.97;7763573;32;37850;-76
2022/07/04 20:22:05;;;;;;;4.37;2.40;;;;;;;30.14;33.38;99669.34;7765226;32;36587;-75
2022/07/04 20:26:21;;;;;;;8.57;2.47;;;;;;;30.23;33.43;99658.47;7745699;32;39665;-77
2022/07/04 20:30:37;;;;;;;5.68;2.55;;;;;;;30.10;33.85;99655.31;7736080;32;39609;-76
2022/07/04 20:35:08;;;;;;;7.10;2.70;;;;;;;30.31;33.55;99639.56;7740254;32;37740;-75
2022/07/04 20:39:25;;;;;;;6.80;2.28;;;;;;;30.31;33.25;99643.16;7746410;32;37715;-75
2022/07/04 20:43:41;;;;;;;10.23;2.45;;;;;;;30.26;33.63;99645.59;7747334;32;38820;-75
2022/07/04 20:47:57;;;;;;;8.13;2.28;;;;;;;30.25;33.76;99647.62;7749945;32;39621;-75
2022/07/04 20:52:14;;;;;;;8.70;2.20;;;;;;;30.27;33.90;99639.59;7759870;32;37962;-75